CSCL Fuzhou — ELYA7 — position and weather

sailwx.info

Track history (hours):
 
Tides and Currents Weather Stations Pressure Air Temp Water Temp Dewpoint Dewpoint Depression Visibility Wind Speed Wind Dir Waves Ship Positions

CSCL Fuzhou

Last reported at 2017-Oct-17 20:54 UTC. Time now 2017-Oct-20 14:45 UTC.
Position N 34°57' E 139°27'.

Length 207.4 m; beam 29.8 m; draft 11.4 m.

Type: Ship (hazmat cat A). MMSI: 636016483.

Date/timePositionNaut miles runAvg speedWind from/ knotsBaromVisibWave heightAir tempDewpointWater temp
2017-Oct-17 20:54N 34°57' E 139°27'512.7
2017-Oct-17 20:30N 34°60' E 139°32'714.0
2017-Oct-17 20:00N 35°04' E 139°39'714.5
2017-Oct-17 19:30N 35°10' E 139°45'612.1
2017-Oct-17 19:01N 35°15' E 139°46'611.8
2017-Oct-17 18:30N 35°20' E 139°42'612.6
2017-Oct-17 18:01N 35°27' E 139°41'0 0.9
2017-Oct-17 17:30N 35°26' E 139°41'0 0.0
2017-Oct-17 17:01N 35°26' E 139°41'0 0.0
2017-Oct-17 16:30N 35°26' E 139°41'0 0.0
2017-Oct-17 16:01N 35°26' E 139°41'0 0.0
2017-Oct-17 15:29N 35°26' E 139°41'0 0.1
2017-Oct-17 14:59N 35°26' E 139°41'0 0.1
2017-Oct-17 14:29N 35°26' E 139°41'0 0.0
2017-Oct-17 13:59N 35°26' E 139°41'0 0.0
2017-Oct-17 13:29N 35°26' E 139°41'0 0.0
2017-Oct-17 12:59N 35°26' E 139°41'0 0.0
2017-Oct-17 12:29N 35°26' E 139°41'0 0.0
2017-Oct-17 11:59N 35°26' E 139°41'0 0.0
2017-Oct-17 11:29N 35°26' E 139°41'0 0.0
2017-Oct-17 10:59N 35°26' E 139°41'0 0.0
2017-Oct-17 10:26N 35°26' E 139°41'0 0.0
2017-Oct-17 09:59N 35°26' E 139°41'0 0.0
2017-Oct-17 09:29N 35°26' E 139°41'0 0.1
2017-Oct-17 09:00N 35°26' E 139°41'2 3.6
2017-Oct-17 08:31N 35°26' E 139°43'5 9.5
2017-Oct-17 08:01N 35°29' E 139°48'5 9.8
2017-Oct-17 07:30N 35°33' E 139°51'5 9.3
2017-Oct-17 07:00N 35°37' E 139°47'0 0.1
2017-Oct-17 06:14N 35°37' E 139°47'0 0.0
2017-Oct-17 05:44N 35°37' E 139°47'0 0.0
2017-Oct-17 05:26N 35°37' E 139°47'0 0.0
2017-Oct-17 04:56N 35°37' E 139°47'0 0.0
2017-Oct-17 01:23N 35°37' E 139°47'0 0.0
2017-Oct-17 00:59N 35°37' E 139°47'0 0.0
2017-Oct-16 22:05N 35°37' E 139°47'0 0.2
2017-Oct-16 22:00N 35°37' E 139°47'3 6.5
2017-Oct-16 21:31N 35°34' E 139°49'612.2
2017-Oct-16 21:01N 35°28' E 139°51'713.8
2017-Oct-16 20:31N 35°23' E 139°46'611.6
2017-Oct-16 20:01N 35°17' E 139°45'611.9
2017-Oct-16 19:30N 35°11' E 139°47'3 7.0
2017-Oct-16 19:01N 35°08' E 139°46'3 6.2
2017-Oct-16 18:30N 35°05' E 139°45'4 7.2
2017-Oct-16 18:00N 35°02' E 139°43'3 6.2
2017-Oct-16 17:30N 34°60' E 139°40'3 7.0
2017-Oct-16 17:00N 34°58' E 139°36'4 8.2
2017-Oct-16 16:30N 34°56' E 139°32'5 9.6
2017-Oct-16 15:56N 34°54' E 139°26'715.5
2017-Oct-16 15:30N 34°49' E 139°20'  
2017-Oct-12 15:14N 22°48' E 120°04'416.8
2017-Oct-12 15:00N 22°45' E 120°06'816.5
2017-Oct-12 14:30N 22°38' E 120°11'713.9
2017-Oct-12 14:00N 22°33' E 120°16'3 4.7
2017-Oct-12 13:18N 22°33' E 120°20'0 0.0
2017-Oct-11 20:20N 22°33' E 120°20'2 4.3
2017-Oct-11 19:59N 22°33' E 120°18'3 6.8
2017-Oct-11 19:30N 22°32' E 120°15'4 8.9
2017-Oct-11 19:00N 22°30' E 120°11'816.1
2017-Oct-11 18:30N 22°24' E 120°04'917.8
2017-Oct-11 18:00N 22°19' E 119°56'  
Track history (hours):
 
Tides and Currents Weather Stations Pressure Air Temp Water Temp Dewpoint Dewpoint Depression Visibility Wind Speed Wind Dir Waves Ship Positions

CSCL Fuzhou

Last reported at 2017-Oct-17 20:54 UTC. Time now 2017-Oct-20 14:45 UTC.
Position N 34°57' E 139°27'.

Length 207.4 m; beam 29.8 m; draft 11.4 m.

Type: Ship (hazmat cat A). MMSI: 636016483.

Date/timePositionNaut miles runAvg speedWind from/ knotsBaromVisibWave heightAir tempDewpointWater temp
2017-Oct-17 20:54N 34°57' E 139°27'512.7
2017-Oct-17 20:30N 34°60' E 139°32'714.0
2017-Oct-17 20:00N 35°04' E 139°39'714.5
2017-Oct-17 19:30N 35°10' E 139°45'612.1
2017-Oct-17 19:01N 35°15' E 139°46'611.8
2017-Oct-17 18:30N 35°20' E 139°42'612.6
2017-Oct-17 18:01N 35°27' E 139°41'0 0.9
2017-Oct-17 17:30N 35°26' E 139°41'0 0.0
2017-Oct-17 17:01N 35°26' E 139°41'0 0.0
2017-Oct-17 16:30N 35°26' E 139°41'0 0.0
2017-Oct-17 16:01N 35°26' E 139°41'0 0.0
2017-Oct-17 15:29N 35°26' E 139°41'0 0.1
2017-Oct-17 14:59N 35°26' E 139°41'0 0.1
2017-Oct-17 14:29N 35°26' E 139°41'0 0.0
2017-Oct-17 13:59N 35°26' E 139°41'0 0.0
2017-Oct-17 13:29N 35°26' E 139°41'0 0.0
2017-Oct-17 12:59N 35°26' E 139°41'0 0.0
2017-Oct-17 12:29N 35°26' E 139°41'0 0.0
2017-Oct-17 11:59N 35°26' E 139°41'0 0.0
2017-Oct-17 11:29N 35°26' E 139°41'0 0.0
2017-Oct-17 10:59N 35°26' E 139°41'0 0.0
2017-Oct-17 10:26N 35°26' E 139°41'0 0.0
2017-Oct-17 09:59N 35°26' E 139°41'0 0.0
2017-Oct-17 09:29N 35°26' E 139°41'0 0.1
2017-Oct-17 09:00N 35°26' E 139°41'2 3.6
2017-Oct-17 08:31N 35°26' E 139°43'5 9.5
2017-Oct-17 08:01N 35°29' E 139°48'5 9.8
2017-Oct-17 07:30N 35°33' E 139°51'5 9.3
2017-Oct-17 07:00N 35°37' E 139°47'0 0.1
2017-Oct-17 06:14N 35°37' E 139°47'0 0.0
2017-Oct-17 05:44N 35°37' E 139°47'0 0.0
2017-Oct-17 05:26N 35°37' E 139°47'0 0.0
2017-Oct-17 04:56N 35°37' E 139°47'0 0.0
2017-Oct-17 01:23N 35°37' E 139°47'0 0.0
2017-Oct-17 00:59N 35°37' E 139°47'0 0.0
2017-Oct-16 22:05N 35°37' E 139°47'0 0.2
2017-Oct-16 22:00N 35°37' E 139°47'3 6.5
2017-Oct-16 21:31N 35°34' E 139°49'612.2
2017-Oct-16 21:01N 35°28' E 139°51'713.8
2017-Oct-16 20:31N 35°23' E 139°46'611.6
2017-Oct-16 20:01N 35°17' E 139°45'611.9
2017-Oct-16 19:30N 35°11' E 139°47'3 7.0
2017-Oct-16 19:01N 35°08' E 139°46'3 6.2
2017-Oct-16 18:30N 35°05' E 139°45'4 7.2
2017-Oct-16 18:00N 35°02' E 139°43'3 6.2
2017-Oct-16 17:30N 34°60' E 139°40'3 7.0
2017-Oct-16 17:00N 34°58' E 139°36'4 8.2
2017-Oct-16 16:30N 34°56' E 139°32'5 9.6
2017-Oct-16 15:56N 34°54' E 139°26'715.5
2017-Oct-16 15:30N 34°49' E 139°20'  
2017-Oct-12 15:14N 22°48' E 120°04'416.8
2017-Oct-12 15:00N 22°45' E 120°06'816.5
2017-Oct-12 14:30N 22°38' E 120°11'713.9
2017-Oct-12 14:00N 22°33' E 120°16'3 4.7
2017-Oct-12 13:18N 22°33' E 120°20'0 0.0
2017-Oct-11 20:20N 22°33' E 120°20'2 4.3
2017-Oct-11 19:59N 22°33' E 120°18'3 6.8
2017-Oct-11 19:30N 22°32' E 120°15'4 8.9
2017-Oct-11 19:00N 22°30' E 120°11'816.1
2017-Oct-11 18:30N 22°24' E 120°04'917.8
2017-Oct-11 18:00N 22°19' E 119°56'  

Dump ship's entire track history